createdAt,value
2023-03-27T00:01:06.853Z,2.27
2023-03-27T00:03:33.460Z,2.50
2023-03-27T00:06:00.850Z,2.83
2023-03-27T00:08:27.628Z,2.67
2023-03-27T00:10:54.321Z,2.77
2023-03-27T00:13:21.467Z,2.63
2023-03-27T00:15:49.633Z,2.47
2023-03-27T00:18:15.805Z,2.73
2023-03-27T00:20:42.129Z,2.47
2023-03-27T00:23:08.364Z,2.40
2023-03-27T00:25:34.713Z,2.93
2023-03-27T00:28:01.016Z,2.30
2023-03-27T00:30:29.337Z,2.03
2023-03-27T00:32:55.756Z,2.43
2023-03-27T00:35:23.093Z,2.70
2023-03-27T00:37:49.402Z,1.97
2023-03-27T00:40:17.017Z,2.30
2023-03-27T00:42:44.036Z,2.57
2023-03-27T00:45:16.814Z,2.33
2023-03-27T00:47:45.326Z,2.90
2023-03-27T00:50:14.530Z,2.53
2023-03-27T00:52:42.320Z,2.80
2023-03-27T00:55:11.365Z,2.93
2023-03-27T00:57:37.714Z,2.80
2023-03-27T01:00:09.609Z,3.37
2023-03-27T01:02:35.935Z,3.10
2023-03-27T01:05:02.950Z,2.87
2023-03-27T01:07:29.123Z,2.57
2023-03-27T01:09:55.637Z,2.33
2023-03-27T01:12:43.474Z,2.60
2023-03-27T01:15:19.492Z,2.97
2023-03-27T01:17:55.273Z,2.77
2023-03-27T01:20:56.331Z,2.23
2023-03-27T01:24:00.604Z,2.70
2023-03-27T01:26:50.781Z,3.93
2023-03-27T01:29:22.005Z,2.30
2023-03-27T01:32:14.658Z,2.20
2023-03-27T01:35:09.959Z,2.47
2023-03-27T01:37:49.550Z,2.77
2023-03-27T01:40:18.539Z,2.93
2023-03-27T01:42:47.790Z,2.60
2023-03-27T01:45:18.180Z,2.80
2023-03-27T01:47:49.801Z,2.40
2023-03-27T01:50:19.498Z,2.80
2023-03-27T01:52:49.585Z,2.40
2023-03-27T01:55:18.575Z,3.03
2023-03-27T01:57:48.942Z,2.63
2023-03-27T02:00:20.981Z,2.27
2023-03-27T02:02:50.936Z,3.43
2023-03-27T02:05:19.963Z,2.43
2023-03-27T02:07:50.750Z,2.77
2023-03-27T02:10:21.527Z,2.80
2023-03-27T02:12:50.909Z,2.63
2023-03-27T02:15:23.290Z,2.93
2023-03-27T02:17:56.327Z,2.70
2023-03-27T02:20:23.354Z,3.30
2023-03-27T02:22:49.961Z,2.40
2023-03-27T02:25:28.435Z,2.50
2023-03-27T02:28:22.874Z,2.60
2023-03-27T02:31:06.604Z,2.50
2023-03-27T02:33:51.205Z,2.63
2023-03-27T02:36:25.085Z,2.70
2023-03-27T02:38:56.362Z,2.53
2023-03-27T02:41:27.953Z,2.10
2023-03-27T02:43:58.824Z,2.60
2023-03-27T02:46:28.986Z,2.13
2023-03-27T02:48:57.815Z,2.57
2023-03-27T02:51:27.623Z,2.50
2023-03-27T02:53:57.796Z,2.60
2023-03-27T02:56:27.132Z,2.40
2023-03-27T02:58:56.809Z,2.17
2023-03-27T03:01:25.909Z,1.93
2023-03-27T03:03:56.963Z,2.20
2023-03-27T03:06:29.051Z,2.47
2023-03-27T03:09:01.454Z,2.13
2023-03-27T03:11:28.774Z,2.50
2023-03-27T03:13:55.403Z,2.27
2023-03-27T03:16:22.286Z,1.93
2023-03-27T03:18:48.694Z,1.90
2023-03-27T03:21:15.111Z,3.00
2023-03-27T03:23:41.288Z,2.53
2023-03-27T03:26:24.515Z,2.27
2023-03-27T03:29:00.231Z,2.40
2023-03-27T03:31:27.377Z,2.20
2023-03-27T03:33:53.848Z,2.10
2023-03-27T03:36:20.046Z,1.83
2023-03-27T03:38:46.241Z,2.27
2023-03-27T03:41:12.458Z,1.70
2023-03-27T03:43:38.594Z,2.60
2023-03-27T03:46:05.610Z,2.37
2023-03-27T03:48:31.945Z,2.00
2023-03-27T03:50:58.351Z,2.30
2023-03-27T03:53:24.718Z,2.60
2023-03-27T03:55:54.145Z,2.23
2023-03-27T03:58:20.319Z,2.40
2023-03-27T04:00:46.618Z,2.57
2023-03-27T04:03:14.308Z,1.90
2023-03-27T04:05:40.807Z,2.17
2023-03-27T04:08:07.058Z,1.83
2023-03-27T04:10:33.884Z,2.37
2023-03-27T04:13:00.127Z,2.03
2023-03-27T04:15:26.642Z,2.20
2023-03-27T04:17:52.881Z,2.13
2023-03-27T04:20:19.881Z,2.27
2023-03-27T04:22:48.043Z,1.73
2023-03-27T04:25:16.601Z,1.73
2023-03-27T04:27:45.910Z,2.27
2023-03-27T04:30:13.300Z,1.87
2023-03-27T04:32:39.720Z,1.83
2023-03-27T04:35:06.888Z,2.47
2023-03-27T04:37:33.688Z,2.07
2023-03-27T04:40:00.164Z,2.20
2023-03-27T04:42:26.358Z,1.77
2023-03-27T04:44:52.588Z,1.80
2023-03-27T04:47:19.766Z,2.10
2023-03-27T04:49:46.191Z,1.43
2023-03-27T04:52:13.485Z,2.40
2023-03-27T04:54:41.212Z,2.47
2023-03-27T04:57:09.585Z,1.90
2023-03-27T04:59:36.330Z,2.83
2023-03-27T05:02:03.081Z,2.30
2023-03-27T05:04:30.190Z,2.17
2023-03-27T05:06:58.025Z,2.37
2023-03-27T05:09:24.290Z,2.60
2023-03-27T05:11:51.356Z,2.43
2023-03-27T05:14:18.861Z,2.23
2023-03-27T05:16:45.349Z,2.53
2023-03-27T05:19:11.803Z,2.10
2023-03-27T05:21:38.239Z,2.07
2023-03-27T05:24:05.175Z,2.20
2023-03-27T05:26:32.016Z,2.37
2023-03-27T05:28:59.011Z,2.33
2023-03-27T05:31:26.528Z,1.93
2023-03-27T05:33:53.102Z,3.07
2023-03-27T05:36:19.497Z,2.00
2023-03-27T05:38:45.692Z,2.37
2023-03-27T05:41:12.072Z,2.83
2023-03-27T05:43:38.298Z,3.07
2023-03-27T05:46:05.563Z,3.13
2023-03-27T05:48:31.809Z,2.40
2023-03-27T05:50:58.456Z,2.93
2023-03-27T05:53:28.249Z,2.67
2023-03-27T05:56:03.173Z,2.87
2023-03-27T05:58:29.801Z,2.67
2023-03-27T06:00:56.601Z,2.10
2023-03-27T06:03:24.202Z,3.10
2023-03-27T06:05:50.557Z,2.60
2023-03-27T06:08:16.747Z,2.73
2023-03-27T06:10:43.625Z,2.53
2023-03-27T06:13:11.956Z,2.27
2023-03-27T06:15:40.358Z,2.63
2023-03-27T06:18:07.382Z,2.27
2023-03-27T06:20:34.601Z,2.60
2023-03-27T06:23:02.056Z,2.77
2023-03-27T06:25:31.435Z,2.53
2023-03-27T06:27:58.049Z,2.40
2023-03-27T06:30:25.466Z,2.77
2023-03-27T06:32:54.363Z,2.63
2023-03-27T06:35:21.168Z,2.70
2023-03-27T06:37:50.930Z,2.40
2023-03-27T06:40:21.673Z,2.60
2023-03-27T06:42:49.903Z,2.40
2023-03-27T06:45:16.250Z,1.93
2023-03-27T06:47:54.311Z,2.17
2023-03-27T06:50:23.456Z,2.40
2023-03-27T06:52:50.346Z,4.60
2023-03-27T06:55:17.502Z,2.30
2023-03-27T06:57:44.161Z,2.20
2023-03-27T07:00:12.197Z,2.07
2023-03-27T07:02:38.742Z,2.20
2023-03-27T07:05:06.533Z,2.10
2023-03-27T07:07:32.783Z,2.27
2023-03-27T07:09:59.718Z,2.13
2023-03-27T07:12:26.189Z,2.80
2023-03-27T07:14:52.425Z,2.17
2023-03-27T07:17:18.742Z,1.50
2023-03-27T07:19:45.497Z,1.77
2023-03-27T07:22:11.700Z,1.17
2023-03-27T07:24:37.830Z,1.40
2023-03-27T07:27:05.019Z,1.83
2023-03-27T07:29:31.162Z,1.40
2023-03-27T07:32:00.193Z,1.47
2023-03-27T07:34:29.122Z,1.40
2023-03-27T07:36:56.634Z,1.30
2023-03-27T07:39:23.306Z,1.20
2023-03-27T07:41:49.521Z,1.17
2023-03-27T07:44:16.639Z,1.20
2023-03-27T07:46:42.888Z,1.50
2023-03-27T07:49:09.066Z,1.47
2023-03-27T07:51:35.228Z,1.37
2023-03-27T07:54:03.707Z,1.57
2023-03-27T07:56:31.455Z,1.33
2023-03-27T07:58:57.790Z,1.17
2023-03-27T08:01:25.357Z,1.60
2023-03-27T08:03:52.201Z,1.30
2023-03-27T08:06:18.645Z,1.43
2023-03-27T08:08:45.116Z,1.90
2023-03-27T08:11:23.164Z,1.87
2023-03-27T08:13:56.170Z,1.60
2023-03-27T08:16:26.826Z,1.20
2023-03-27T08:18:53.911Z,1.70
2023-03-27T08:21:20.510Z,1.57
2023-03-27T08:23:47.064Z,1.20
2023-03-27T08:26:13.774Z,1.43
2023-03-27T08:28:40.200Z,1.40
2023-03-27T08:31:11.759Z,1.30
2023-03-27T08:33:38.939Z,1.03
2023-03-27T08:36:09.242Z,1.50
2023-03-27T08:38:38.530Z,1.33
2023-03-27T08:41:05.274Z,1.20
2023-03-27T08:43:36.423Z,1.60
2023-03-27T08:46:07.688Z,1.30
2023-03-27T08:48:37.013Z,1.20
2023-03-27T08:51:08.529Z,2.00
2023-03-27T08:53:40.253Z,1.50
2023-03-27T08:56:10.863Z,1.47
2023-03-27T08:58:37.301Z,1.27
2023-03-27T09:01:07.972Z,1.40
2023-03-27T09:03:44.101Z,1.47
2023-03-27T09:06:19.275Z,2.10
2023-03-27T09:08:49.345Z,1.80
2023-03-27T09:11:27.069Z,1.80
2023-03-27T09:13:53.564Z,1.43
2023-03-27T09:16:23.380Z,1.63
2023-03-27T09:18:56.111Z,1.80
2023-03-27T09:21:30.119Z,2.23
2023-03-27T09:23:59.569Z,1.63
2023-03-27T09:26:30.353Z,1.50
2023-03-27T09:29:00.338Z,1.77
2023-03-27T09:31:29.069Z,1.53
2023-03-27T09:33:58.142Z,1.80
2023-03-27T09:36:25.087Z,1.60
2023-03-27T09:38:57.729Z,1.60
2023-03-27T09:41:26.869Z,1.40
2023-03-27T09:43:56.005Z,1.80
2023-03-27T09:46:24.025Z,2.20
2023-03-27T09:48:56.113Z,1.60
2023-03-27T09:51:41.452Z,1.73
2023-03-27T09:54:08.618Z,1.57
2023-03-27T09:56:36.130Z,1.40
2023-03-27T09:59:08.867Z,1.90
2023-03-27T10:01:35.298Z,1.87
2023-03-27T10:04:12.171Z,1.63
2023-03-27T10:06:43.785Z,2.07
2023-03-27T10:09:18.822Z,1.43
2023-03-27T10:11:45.032Z,1.70
2023-03-27T10:14:16.025Z,2.07
2023-03-27T10:16:42.653Z,1.40
2023-03-27T10:19:21.299Z,1.30
2023-03-27T10:21:48.198Z,1.83
2023-03-27T10:24:20.004Z,1.50
2023-03-27T10:26:47.506Z,1.57
2023-03-27T10:29:21.463Z,1.70
2023-03-27T10:31:50.134Z,1.83
2023-03-27T10:34:32.309Z,1.90
2023-03-27T10:37:02.504Z,1.60
2023-03-27T10:39:32.068Z,1.60
2023-03-27T10:42:02.514Z,1.40
2023-03-27T10:44:28.713Z,1.60
2023-03-27T10:46:54.995Z,1.60
2023-03-27T10:49:28.027Z,1.57
2023-03-27T10:51:59.169Z,1.50
2023-03-27T10:54:33.649Z,1.60
2023-03-27T10:57:02.213Z,1.70
2023-03-27T10:59:40.908Z,1.67
2023-03-27T11:02:12.937Z,1.23
2023-03-27T11:04:44.392Z,1.63
2023-03-27T11:07:17.398Z,1.90
2023-03-27T11:09:54.256Z,3.30
2023-03-27T11:12:21.406Z,2.17
2023-03-27T11:14:50.383Z,2.50
2023-03-27T11:17:19.445Z,1.40
2023-03-27T11:19:49.006Z,1.97
2023-03-27T11:22:19.289Z,2.13
2023-03-27T11:24:50.365Z,2.30
2023-03-27T11:27:22.590Z,2.27
2023-03-27T11:29:54.101Z,2.13
2023-03-27T11:32:29.043Z,1.20
2023-03-27T11:35:00.037Z,1.20
2023-03-27T11:37:37.381Z,1.37
2023-03-27T11:40:10.121Z,1.10
2023-03-27T11:42:41.669Z,1.70
2023-03-27T11:45:11.553Z,1.00
2023-03-27T11:48:06.084Z,1.00
2023-03-27T11:50:40.017Z,0.70
2023-03-27T11:53:19.175Z,0.90
2023-03-27T11:56:00.292Z,0.90
2023-03-27T11:58:31.409Z,0.90
2023-03-27T12:01:06.474Z,0.90
2023-03-27T12:04:11.084Z,0.73
2023-03-27T12:06:42.258Z,0.73
2023-03-27T12:09:18.902Z,0.70
2023-03-27T12:11:49.719Z,0.70
2023-03-27T12:14:40.886Z,0.60
2023-03-27T12:17:42.254Z,0.70
2023-03-27T12:20:32.782Z,0.83
2023-03-27T12:23:04.490Z,0.70
2023-03-27T12:25:44.496Z,0.83
2023-03-27T12:28:22.870Z,1.07
2023-03-27T12:30:53.665Z,0.90
2023-03-27T12:33:31.772Z,0.97
2023-03-27T12:36:00.899Z,0.80
2023-03-27T12:38:29.263Z,1.23
2023-03-27T12:41:05.666Z,0.70
2023-03-27T12:43:38.778Z,0.50
2023-03-27T12:46:14.963Z,1.00
2023-03-27T12:48:55.061Z,1.20
2023-03-27T12:51:36.788Z,1.30
2023-03-27T12:54:22.657Z,0.80
2023-03-27T12:56:49.748Z,0.80
2023-03-27T12:59:21.806Z,0.70
2023-03-27T13:01:58.417Z,0.30
2023-03-27T13:04:40.655Z,0.50
2023-03-27T13:07:12.714Z,0.73
2023-03-27T13:09:52.056Z,0.67
2023-03-27T13:12:28.051Z,1.27
2023-03-27T13:15:21.183Z,0.93
2023-03-27T13:18:16.095Z,1.10
2023-03-27T13:20:47.398Z,0.80
2023-03-27T13:23:22.814Z,0.93
2023-03-27T13:26:10.323Z,0.90
2023-03-27T13:28:37.698Z,0.70
2023-03-27T13:31:07.038Z,0.80
2023-03-27T13:33:42.826Z,1.00
2023-03-27T13:36:13.693Z,0.67
2023-03-27T13:39:12.863Z,0.73
2023-03-27T13:41:53.997Z,0.83
2023-03-27T13:44:25.825Z,0.90
2023-03-27T13:46:56.789Z,0.80
2023-03-27T13:49:32.572Z,0.80
2023-03-27T13:52:20.767Z,0.57
2023-03-27T13:54:58.271Z,1.07
2023-03-27T13:57:38.567Z,1.30
2023-03-27T14:00:49.431Z,1.37
2023-03-27T14:03:54.338Z,1.20
2023-03-27T14:06:44.852Z,1.57
2023-03-27T14:09:16.152Z,1.27
2023-03-27T14:11:53.517Z,1.13
2023-03-27T14:14:36.701Z,0.70
2023-03-27T14:17:29.230Z,0.80
2023-03-27T14:20:12.434Z,0.93
2023-03-27T14:22:42.412Z,0.93
2023-03-27T14:25:12.393Z,0.90
2023-03-27T14:27:39.948Z,0.83
2023-03-27T14:30:13.674Z,1.00
2023-03-27T14:32:40.221Z,1.20
2023-03-27T14:35:23.111Z,1.50
2023-03-27T14:37:55.378Z,1.20
2023-03-27T14:40:23.669Z,1.07
2023-03-27T14:42:51.775Z,1.03
2023-03-27T14:45:22.116Z,0.90
2023-03-27T14:47:51.861Z,1.20
2023-03-27T14:50:18.995Z,1.43
2023-03-27T14:52:50.538Z,1.07
2023-03-27T14:55:18.066Z,0.80
2023-03-27T14:57:44.423Z,1.30
2023-03-27T15:00:15.550Z,1.00
2023-03-27T15:02:43.897Z,1.20
2023-03-27T15:05:12.696Z,1.20
2023-03-27T15:07:41.284Z,1.30
2023-03-27T15:10:19.820Z,1.00
2023-03-27T15:12:46.878Z,1.10
2023-03-27T15:15:25.602Z,0.93
2023-03-27T15:17:54.606Z,1.00
2023-03-27T15:20:23.995Z,1.40
2023-03-27T15:22:54.088Z,1.20
2023-03-27T15:25:26.235Z,1.00
2023-03-27T15:27:55.469Z,1.27
2023-03-27T15:30:27.077Z,1.50
2023-03-27T15:32:55.388Z,1.13
2023-03-27T15:35:26.642Z,1.10
2023-03-27T15:37:54.037Z,1.47
2023-03-27T15:40:34.754Z,1.20
2023-03-27T15:43:02.664Z,1.37
2023-03-27T15:45:35.672Z,1.37
2023-03-27T15:48:05.788Z,1.67
2023-03-27T15:50:32.568Z,1.70
2023-03-27T15:53:00.786Z,1.43
2023-03-27T15:55:37.004Z,1.53
2023-03-27T15:58:19.895Z,1.47
2023-03-27T16:00:47.870Z,1.20
2023-03-27T16:03:18.285Z,1.30
2023-03-27T16:05:44.904Z,1.40
2023-03-27T16:08:11.931Z,1.30
2023-03-27T16:10:38.622Z,1.10
2023-03-27T16:13:06.644Z,1.40
2023-03-27T16:15:36.752Z,1.10
2023-03-27T16:18:12.626Z,1.50
2023-03-27T16:20:39.387Z,1.40
2023-03-27T16:23:05.615Z,1.50
2023-03-27T16:25:32.394Z,1.40
2023-03-27T16:27:58.729Z,1.23
2023-03-27T16:30:28.596Z,1.40
2023-03-27T16:32:55.397Z,1.47
2023-03-27T16:35:21.650Z,1.50
2023-03-27T16:37:48.128Z,1.50
2023-03-27T16:40:14.837Z,1.27
2023-03-27T16:42:41.791Z,1.10
2023-03-27T16:45:08.647Z,1.33
2023-03-27T16:47:34.895Z,1.50
2023-03-27T16:52:34.128Z,1.53
2023-03-27T16:55:01.278Z,1.27
2023-03-27T16:57:27.541Z,1.27
2023-03-27T16:59:54.608Z,1.10
2023-03-27T17:02:20.750Z,1.20
2023-03-27T17:04:46.975Z,0.93
2023-03-27T17:07:13.166Z,1.23
2023-03-27T17:09:39.367Z,1.13
2023-03-27T17:12:05.699Z,1.20
2023-03-27T17:14:31.903Z,1.57
2023-03-27T17:16:58.851Z,1.40
2023-03-27T17:19:25.095Z,1.23
2023-03-27T17:21:51.266Z,1.80
2023-03-27T17:24:19.000Z,2.00
2023-03-27T17:26:45.397Z,1.40
2023-03-27T17:29:11.744Z,1.37
2023-03-27T17:31:38.051Z,1.30
2023-03-27T17:34:06.140Z,1.50
2023-03-27T17:36:42.829Z,1.27
2023-03-27T17:39:13.611Z,1.37
2023-03-27T17:41:39.945Z,1.50
2023-03-27T17:44:07.651Z,1.00
2023-03-27T17:46:34.356Z,1.30
2023-03-27T17:49:00.564Z,1.20
2023-03-27T17:51:27.646Z,1.60
2023-03-27T17:53:54.065Z,1.57
2023-03-27T17:56:20.283Z,1.30
2023-03-27T17:58:48.329Z,1.53
2023-03-27T18:01:17.434Z,1.50
2023-03-27T18:03:44.393Z,1.63
2023-03-27T18:06:10.706Z,1.97
2023-03-27T18:08:37.636Z,1.67
2023-03-27T18:11:07.748Z,1.57
2023-03-27T18:13:34.375Z,1.83
2023-03-27T18:16:01.309Z,1.90
2023-03-27T18:18:29.277Z,1.50
2023-03-27T18:20:55.487Z,1.77
2023-03-27T18:23:21.770Z,1.83
2023-03-27T18:25:48.811Z,1.30
2023-03-27T18:28:15.464Z,1.30
2023-03-27T18:30:42.767Z,1.40
2023-03-27T18:33:10.439Z,2.00
2023-03-27T18:35:37.318Z,1.63
2023-03-27T18:38:03.907Z,1.10
2023-03-27T18:40:32.098Z,1.40
2023-03-27T18:42:59.308Z,1.53
2023-03-27T18:45:25.742Z,1.37
2023-03-27T18:47:51.962Z,1.70
2023-03-27T18:50:18.554Z,1.40
2023-03-27T18:52:44.994Z,1.67
2023-03-27T18:55:12.208Z,1.37
2023-03-27T18:57:39.615Z,1.73
2023-03-27T19:00:08.468Z,1.70
2023-03-27T19:02:36.043Z,1.67
2023-03-27T19:05:03.211Z,2.20
2023-03-27T19:07:29.974Z,1.40
2023-03-27T19:09:56.843Z,1.40
2023-03-27T19:12:23.082Z,1.50
2023-03-27T19:14:49.278Z,1.67
2023-03-27T19:17:16.194Z,1.70
2023-03-27T19:19:43.887Z,1.20
2023-03-27T19:22:11.836Z,1.67
2023-03-27T19:24:38.671Z,1.30
2023-03-27T19:27:07.531Z,1.37
2023-03-27T19:29:50.525Z,1.50
2023-03-27T19:32:17.473Z,1.63
2023-03-27T19:34:43.946Z,1.60
2023-03-27T19:37:11.126Z,1.50
2023-03-27T19:39:37.335Z,1.83
2023-03-27T19:42:04.312Z,1.53
2023-03-27T19:44:30.939Z,1.53
2023-03-27T19:46:57.324Z,1.50
2023-03-27T19:49:24.174Z,1.80
2023-03-27T19:51:50.331Z,1.60
2023-03-27T19:54:16.599Z,1.70
2023-03-27T19:56:42.777Z,1.60
2023-03-27T19:59:15.185Z,1.70
2023-03-27T20:01:47.228Z,1.90
2023-03-27T20:04:13.659Z,1.80
2023-03-27T20:06:40.545Z,2.20
2023-03-27T20:09:06.866Z,1.80
2023-03-27T20:11:33.172Z,2.07
2023-03-27T20:13:59.296Z,1.87
2023-03-27T20:16:26.649Z,1.80
2023-03-27T20:18:54.686Z,2.10
2023-03-27T20:21:23.662Z,1.90
2023-03-27T20:23:53.159Z,1.77
2023-03-27T20:26:20.577Z,1.90
2023-03-27T20:28:46.763Z,1.80
2023-03-27T20:31:13.154Z,1.70
2023-03-27T20:33:39.355Z,2.23
2023-03-27T20:36:06.390Z,2.10
2023-03-27T20:38:32.827Z,2.17
2023-03-27T20:41:02.766Z,1.97
2023-03-27T20:43:30.043Z,2.73
2023-03-27T20:45:57.969Z,2.00
2023-03-27T20:48:24.536Z,1.80
2023-03-27T20:50:52.872Z,1.90
2023-03-27T20:53:25.237Z,1.80
2023-03-27T20:55:59.852Z,1.87
2023-03-27T20:58:27.927Z,2.30
2023-03-27T21:00:55.175Z,2.10
2023-03-27T21:03:21.849Z,2.20
2023-03-27T21:05:48.232Z,1.70
2023-03-27T21:08:14.721Z,2.30
2023-03-27T21:10:41.331Z,2.00
2023-03-27T21:13:08.008Z,2.43
2023-03-27T21:15:35.434Z,2.00
2023-03-27T21:18:02.086Z,2.20
2023-03-27T21:20:28.360Z,1.90
2023-03-27T21:22:54.646Z,2.13
2023-03-27T21:25:21.796Z,2.10
2023-03-27T21:27:48.470Z,1.77
2023-03-27T21:30:16.413Z,2.20
2023-03-27T21:32:44.887Z,1.97
2023-03-27T21:35:11.228Z,2.10
2023-03-27T21:37:37.526Z,1.73
2023-03-27T21:40:04.555Z,2.33
2023-03-27T21:42:30.932Z,2.63
2023-03-27T21:44:57.413Z,1.80
2023-03-27T21:47:29.535Z,2.40
2023-03-27T21:50:01.462Z,1.70
2023-03-27T21:52:27.642Z,2.53
2023-03-27T21:55:02.458Z,2.93
2023-03-27T21:57:29.537Z,1.90
2023-03-27T21:59:55.701Z,1.93
2023-03-27T22:02:21.892Z,2.43
2023-03-27T22:04:48.226Z,1.90
2023-03-27T22:07:15.201Z,2.17
2023-03-27T22:09:43.137Z,2.90
2023-03-27T22:12:09.341Z,2.00
2023-03-27T22:14:35.462Z,2.07
2023-03-27T22:17:01.776Z,1.93
2023-03-27T22:19:28.059Z,2.07
2023-03-27T22:21:55.559Z,2.00
2023-03-27T22:24:24.378Z,1.97
2023-03-27T22:26:50.626Z,2.70
2023-03-27T22:29:16.965Z,2.60
2023-03-27T22:31:43.489Z,2.07
2023-03-27T22:34:09.876Z,2.30
2023-03-27T22:36:36.114Z,1.70
2023-03-27T22:39:02.354Z,2.00
2023-03-27T22:41:29.169Z,2.07
2023-03-27T22:43:59.066Z,2.13
2023-03-27T22:46:25.279Z,2.30
2023-03-27T22:48:54.913Z,2.03
2023-03-27T22:51:21.375Z,2.20
2023-03-27T22:53:47.691Z,1.87
2023-03-27T22:56:13.910Z,2.80
2023-03-27T22:58:40.709Z,2.07
2023-03-27T23:01:07.040Z,2.57
2023-03-27T23:03:33.420Z,2.33
2023-03-27T23:05:59.941Z,2.17
2023-03-27T23:08:27.826Z,2.27
2023-03-27T23:10:55.217Z,2.00
2023-03-27T23:13:21.532Z,1.60
2023-03-27T23:15:49.160Z,2.13
2023-03-27T23:18:15.406Z,2.10
2023-03-27T23:20:41.554Z,1.70
2023-03-27T23:23:07.742Z,2.00
2023-03-27T23:25:33.891Z,2.10
2023-03-27T23:28:00.031Z,2.10
2023-03-27T23:30:26.217Z,1.70
2023-03-27T23:32:53.166Z,2.23
2023-03-27T23:35:19.378Z,1.90
2023-03-27T23:37:46.862Z,2.50
2023-03-27T23:40:13.013Z,2.10
2023-03-27T23:42:39.234Z,2.10
2023-03-27T23:45:06.545Z,2.23
2023-03-27T23:47:32.809Z,1.97
2023-03-27T23:49:59.686Z,2.00
2023-03-27T23:52:25.797Z,2.07
2023-03-27T23:54:51.911Z,2.13
2023-03-27T23:57:18.223Z,2.20
2023-03-27T23:59:44.637Z,2.20
